Terminal Aerodrome Forecast
Issued by NWS Wilmington, OH

Current Version | Previous Version | Graphics & Text | Print | Product List | Glossary On
Versions: 1 2 3 4 5 6 7 8 9 10 11 12 13 14 15 16 17 18 19 20
000
FTUS41 KILN 262300 RRA
TAFILN
TAF
KILN 262343Z 2700/2724 35004KT P6SM FEW025 BKN100
     FM270800 33005KT P6SM OVC015
     FM271500 31012KT P6SM BKN025
     FM271800 31010KT P6SM BKN015=

USA.gov is the U.S. government's official web portal to all federal, state and local government web resources and services.